Valerio Lombardo

Recruteur en chef - Avellino
5 Août 2027
Jeudi
Processus

Personnalité

Adaptabilité (10) Ambition (11) Controverse (14) Loyauté (6) Pression (8) Professionnalisme (11) Sportivité (3) Tempérament (18)

Profil

Style d'entraînement Démocratique
Diplôme Continental Pro
Détermination 5
Gestion des joueurs 6
Motivation 5
Discipline 4
Satisfaction professionnelle
63%
Fatigue
0%
Rôle Recruteur en chef
Salaire 59.8K p/s
Contrat 14.03.2030

Performance

Comportement Bon
Efficacité de l'entraînement
24%
Développement des joueurs
50%
Prévention des blessures
20%
Mise en place tactique
30%

Événements récents

A participé à une réunion de recrutement maintenant
A participé à une réunion de recrutement maintenant
A participé à une réunion de recrutement maintenant
A recommandé une cible de transfert maintenant
A recommandé une cible de transfert maintenant
A recommandé une cible de transfert maintenant
A recommandé une cible de transfert maintenant
A recommandé une cible de transfert 7j

Suivi en cours

105
Joueur Club Statut Capacité Confiance Observé Dernière observation Dernier vote
Gonçalo Oliveira Benfica Actif 117 / 121 40% 1 03.08.2027 -
Andrea Cogoni Cosenza Actif 115 / 100 40% 1 03.08.2027 -
Sam Curtis Burton Albion Actif 103 / 116 40% 1 05.07.2027 -
Andrea Bertoncini Triestina Actif 85 / 99 40% 1 05.07.2027 -
Nicola Mosti Catanzaro Actif 119 / 120 55% 1 14.06.2027 -
Oleh Ocheretko FC Dallas Actif 129 / 131 67% 1 01.06.2027 Approuver
Mateus Mané Burnley Actif 127 / 135 40% 3 31.05.2027 -
Tiago Freitas Benfica Actif 112 / 121 40% 1 31.05.2027 -
Santiago Pierotti Lecce Actif 123 / 134 40% 2 30.05.2027 -
Filippo Distefano Empoli Actif 116 / 125 40% 2 30.05.2027 -
Tim Iroegbunam Hull City Actif 134 / 146 40% 2 29.05.2027 -
Giorgi Kvernadze Frosinone Actif 123 / 131 40% 4 27.05.2027 -
Tommaso Pobega Bologna Actif 147 / 136 40% 2 27.05.2027 -
Pontus Almqvist Parma Actif 139 / 119 40% 2 24.05.2027 -
Gustav Isaksen Lazio Actif 142 / 151 40% 4 24.05.2027 -
Ilyas Ansah Hull City Actif 128 / 143 40% 5 23.05.2027 -
Zakaria Aboukhlal Torino Actif 134 / 138 40% 1 23.05.2027 -
Niccolò Pierozzi Palermo Actif 122 / 116 40% 2 22.05.2027 -
Bjorn Meijer Sampdoria Actif 128 / 127 40% 1 22.05.2027 -
Enrico Delprato Parma Actif 129 / 137 40% 2 21.05.2027 -
Adrián Bernabé Parma Actif 129 / 141 40% 1 21.05.2027 -
John Yeboah Venezia Actif 123 / 120 40% 3 20.05.2027 -
Amin Sarr Hellas Verona Actif 131 / 121 40% 2 19.05.2027 -
Martin Baturina Como Actif 130 / 147 40% 1 17.05.2027 -
Marco Pompetti Padova Actif 128 / 121 40% 1 16.05.2027 -
Harvey White Stevenage Actif 116 / 123 40% 1 08.05.2027 -
Nadir Zortea Bologna Actif 133 / 146 40% 1 08.05.2027 -
Bradley Zwane SuperSport United Actif 107 / 113 40% 1 07.05.2027 -
Bjarki Bjarkason Südtirol Actif 114 / 109 40% 1 07.05.2027 -
Oswin Appollis Orlando Pirates Actif 140 / 126 40% 3 03.05.2027 -
Billy Gilmour Napoli Actif 137 / 152 40% 4 29.04.2027 -
Bongani Zungu Ajax Cape Town Actif 111 / 114 40% 5 25.04.2027 -
Issa Kaboré Wrexham Actif 125 / 129 40% 1 23.04.2027 -
Davide Bragantini Mantova Actif 108 / 128 40% 1 22.04.2027 -
Antoine Bernede Hellas Verona Actif 129 / 133 40% 2 19.04.2027 -
Tomáš Suslov Hellas Verona Actif 139 / 138 40% 2 16.04.2027 -
Gianluca Busio Venezia Actif 144 / 134 40% 1 13.04.2027 -
Themba Williams Ajax Cape Town Actif 127 / 110 40% 1 09.04.2027 -
Mattéo Tramoni Pisa Actif 145 / 127 40% 2 04.04.2027 -
Lameck Banda Lecce Actif 121 / 136 40% 1 04.04.2027 -
Giuseppe Leone Parma Actif 121 / 129 40% 2 03.04.2027 -
Lucas Da Cunha Como Actif 144 / 144 40% 4 01.04.2027 -
Mitchel Bakker Modena Actif 128 / 126 40% 1 29.03.2027 -
Giovanni Bruzzaniti Catania Actif 104 / 101 40% 1 29.03.2027 -
Camillo Tavernelli Arezzo Actif 126 / 121 40% 2 27.03.2027 -
Filippo Ranocchia Palermo Actif 124 / 134 40% 1 24.03.2027 -
Lewis Ferguson Bologna Actif 144 / 148 40% 1 21.03.2027 -
John Mercado Sparta Prague Actif 120 / 120 40% 1 05.03.2027 Plus d'infos
Mehdi Dorval Catanzaro Actif 127 / 133 40% 2 01.03.2027 -
Kristian Thorstvedt Sassuolo Actif 146 / 135 40% 1 01.03.2027 -
Matteo Rover Reggiana Actif 126 / 120 40% 1 02.01.2027 -
Konstantin Tyukavin Osasuna Négociation 132 / 133 66% 1 01.01.2027 Approuver
Patrick Berg Lecce Négociation 141 / 141 62% 1 01.01.2027 Approuver
Sampson Dweh Mallorca Négociation 133 / 134 66% 1 01.01.2027 Approuver
Mao Hosoya Olympique de Marseille Négociation 134 / 135 67% 1 01.01.2027 Approuver
Joseph George Aigle Royal de Moungo Actif 78 / 92 40% 1 28.12.2026 -
Mathys Tel Tottenham Actif 141 / 142 40% 5 26.12.2026 -
Michael Noumon Heart of Lions Actif 76 / 91 40% 1 24.12.2026 -
Juan Miranda Bologna Actif 142 / 134 40% 1 24.12.2026 -
Juan Bezerra Zamalek Actif 118 / 134 40% 1 24.12.2026 -
Teboho Zwane Ajax Cape Town Actif 91 / 89 40% 1 21.12.2026 -
Álex Centelles Levski Actif 133 / 129 40% 1 20.12.2026 -
Miloš Jovičić Zabbar St. Patrick Actif 91 / 91 40% 2 17.12.2026 -
Marcelo Allende Mamelodi Sundowns Actif 136 / 142 40% 1 17.12.2026 -
Lorenzo De Leo Renate Actif 94 / 92 40% 1 10.12.2026 -
Kabu Agyemang Raymond Bechem United Actif 85 / 87 40% 1 10.12.2026 -
Peter Valjent FK Senica Actif 120 / 126 40% 3 07.12.2026 -
Adu Ares Eibar Actif 126 / 120 40% 1 04.12.2026 -
Carlos Augusto Inter Actif 144 / 147 40% 1 30.11.2026 -
Shion Shinkawa Sint-Truiden Actif 97 / 117 40% 3 28.11.2026 -
Adama Goïta Remo Stars Actif 97 / 94 40% 1 24.11.2026 -
Ezekiel Kwame Alladoh Philadelphia Union Actif 117 / 134 40% 1 20.11.2026 -
Alexander Lyng SonderjyskE Actif 103 / 109 40% 4 19.11.2026 -
Odilon Kossounou Atalanta Actif 150 / 141 40% 1 19.11.2026 -
Kirill Cheburakov Rostov Actif 74 / 76 40% 1 17.11.2026 -
Mattia Angeloni AlbinoLeffe Actif 83 / 94 40% 1 16.11.2026 -
Mikel Gogorza Brondby Actif 120 / 117 40% 1 13.11.2026 -
Jalal Abdullai Molde Actif 102 / 108 40% 2 11.11.2026 -
Hans Nicolussi Caviglia Parma Actif 146 / 138 40% 1 11.11.2026 -
Youssoufa Moukoko FC Copenhagen Actif 135 / 125 40% 5 09.11.2026 -
Darren Yapi Colorado Rapids Actif 93 / 100 40% 1 09.11.2026 -
Daniel Kyerewaa Reading Actif 104 / 108 40% 1 09.11.2026 -
Reda Khadra Qarabag Actif 142 / 125 40% 1 09.11.2026 -
Marko Brkić NK Krka Actif 85 / 90 40% 1 07.11.2026 -
Zakka John El-Kanemi Warriors Actif 89 / 88 40% 2 06.11.2026 -
Facundo Mura Inter Miami CF Actif 128 / 130 40% 1 06.11.2026 -
Luís Henrique Inter Actif 151 / 136 40% 2 31.10.2026 -
Martín Ojeda Orlando City Actif 149 / 126 40% 1 31.10.2026 -
Xavier Biscayzacú Defensor Sporting Actif 134 / 119 40% 2 27.10.2026 -
Jadon Sancho Manchester United Actif 143 / 150 40% 1 27.10.2026 -
Csanád Vilmos Dénes Debrecen Actif 107 / 102 40% 1 26.10.2026 -
Tom Fellows Southampton Actif 124 / 123 40% 1 21.10.2026 -
Derensili Sanches Fernandes Huddersfield Town Actif 128 / 119 40% 1 21.10.2026 -
Nico O'Reilly Manchester City Actif 150 / 150 40% 1 16.10.2026 -
Jan Virgili Club Brugge Actif 135 / 124 40% 1 16.10.2026 Plus d'infos
Maren Kefas Plateau United Actif 98 / 86 40% 1 13.10.2026 -
George Brown Sheffield Wednesday Actif 110 / 98 40% 1 12.10.2026 -
Nicolò Cambiaghi Bologna Actif 148 / 142 40% 1 11.10.2026 -
Jorge Jimenez Veracruz Actif 69 / 89 40% 2 28.09.2026 -
Yoshan Valois Lanús Actif 99 / 132 40% 1 21.09.2026 -
Jocelin Ta Bi Sunderland Actif 105 / 111 40% 1 17.09.2026 -
Leo Castledine Middlesbrough Actif 132 / 123 40% 2 14.09.2026 -
Archie Goodwin Charlotte Football Club Actif 103 / 114 40% 1 08.09.2026 -
Rocco Vata Watford Actif 114 / 124 40% 1 07.09.2026 -
Miguel Marulanda Envigado Actif 92 / 101 40% 1 31.08.2026 -